createdAt,value
2022-11-22T00:00:00.158Z,12
2022-11-22T00:04:00.131Z,13
2022-11-22T00:08:00.144Z,13
2022-11-22T00:12:00.147Z,13
2022-11-22T00:16:00.150Z,14
2022-11-22T00:20:00.480Z,14
2022-11-22T00:24:00.135Z,14
2022-11-22T00:28:00.134Z,14
2022-11-22T00:32:00.129Z,15
2022-11-22T00:36:00.146Z,16
2022-11-22T00:40:00.178Z,15
2022-11-22T00:44:00.119Z,16
2022-11-22T00:48:00.161Z,15
2022-11-22T00:52:00.139Z,15
2022-11-22T00:56:00.132Z,15
2022-11-22T01:00:00.184Z,15
2022-11-22T01:04:00.103Z,15
2022-11-22T01:08:00.164Z,15
2022-11-22T01:12:00.132Z,15
2022-11-22T01:16:00.163Z,15
2022-11-22T01:20:00.158Z,15
2022-11-22T01:24:00.157Z,16
2022-11-22T01:28:00.135Z,16
2022-11-22T01:32:00.121Z,16
2022-11-22T01:36:00.119Z,15
2022-11-22T01:40:00.182Z,15
2022-11-22T01:44:00.173Z,16
2022-11-22T01:48:00.120Z,16
2022-11-22T01:52:00.166Z,17
2022-11-22T01:56:00.154Z,15
2022-11-22T02:00:00.162Z,16
2022-11-22T02:04:00.156Z,16
2022-11-22T02:08:00.138Z,15
2022-11-22T02:12:00.132Z,16
2022-11-22T02:16:00.153Z,15
2022-11-22T02:20:00.137Z,16
2022-11-22T02:24:00.124Z,16
2022-11-22T02:28:00.162Z,16
2022-11-22T02:32:00.134Z,15
2022-11-22T02:36:00.149Z,16
2022-11-22T02:40:00.148Z,17
2022-11-22T02:44:00.153Z,15
2022-11-22T02:48:00.151Z,15
2022-11-22T02:52:00.159Z,17
2022-11-22T02:56:00.139Z,16
2022-11-22T03:00:00.138Z,16
2022-11-22T03:04:00.365Z,15
2022-11-22T03:08:00.132Z,16
2022-11-22T03:12:00.138Z,16
2022-11-22T03:16:00.138Z,16
2022-11-22T03:20:00.114Z,17
2022-11-22T03:24:00.138Z,17
2022-11-22T03:28:00.115Z,17
2022-11-22T03:32:00.124Z,17
2022-11-22T03:36:00.124Z,17
2022-11-22T03:40:00.160Z,19
2022-11-22T03:44:00.125Z,17
2022-11-22T03:48:00.099Z,18
2022-11-22T03:52:00.142Z,18
2022-11-22T03:56:00.138Z,19
2022-11-22T04:00:00.185Z,18
2022-11-22T04:04:00.470Z,17
2022-11-22T04:08:00.153Z,17
2022-11-22T04:12:00.131Z,18
2022-11-22T04:16:00.370Z,18
2022-11-22T04:20:00.159Z,19
2022-11-22T04:24:00.128Z,18
2022-11-22T04:28:00.120Z,19
2022-11-22T04:32:00.148Z,19
2022-11-22T04:36:00.136Z,19
2022-11-22T04:40:00.226Z,20
2022-11-22T04:44:00.122Z,20
2022-11-22T04:48:00.150Z,21
2022-11-22T04:52:00.125Z,21
2022-11-22T04:56:00.142Z,20
2022-11-22T05:00:00.174Z,21
2022-11-22T05:04:00.128Z,21
2022-11-22T05:08:00.142Z,21
2022-11-22T05:12:00.102Z,21
2022-11-22T05:16:00.143Z,22
2022-11-22T05:20:00.175Z,21
2022-11-22T05:24:00.146Z,22
2022-11-22T05:28:00.125Z,21
2022-11-22T05:32:00.136Z,21
2022-11-22T05:36:00.144Z,23
2022-11-22T05:40:00.177Z,23
2022-11-22T05:44:00.139Z,22
2022-11-22T05:48:00.159Z,23
2022-11-22T05:52:00.145Z,23
2022-11-22T05:56:00.136Z,23
2022-11-22T06:00:00.136Z,22
2022-11-22T06:04:00.136Z,21
2022-11-22T06:08:00.285Z,21
2022-11-22T06:12:00.142Z,20
2022-11-22T06:16:01.138Z,21
2022-11-22T06:20:05.922Z,28
2022-11-22T06:24:00.173Z,22
2022-11-22T06:28:00.123Z,20
2022-11-22T06:32:03.562Z,20
2022-11-22T06:36:00.151Z,19
2022-11-22T06:40:00.224Z,20
2022-11-22T06:44:00.127Z,19
2022-11-22T06:48:00.133Z,18
2022-11-22T06:52:00.139Z,19
2022-11-22T06:56:01.610Z,18
2022-11-22T07:00:00.191Z,18
2022-11-22T07:04:00.164Z,19
2022-11-22T07:08:06.523Z,19
2022-11-22T07:12:00.132Z,19
2022-11-22T07:16:00.157Z,18
2022-11-22T07:20:00.187Z,19
2022-11-22T07:24:00.144Z,19
2022-11-22T07:28:00.165Z,19
2022-11-22T07:32:00.143Z,20
2022-11-22T07:36:00.148Z,19
2022-11-22T07:40:00.170Z,19
2022-11-22T07:44:00.158Z,19
2022-11-22T07:48:00.122Z,20
2022-11-22T07:52:00.148Z,19
2022-11-22T07:56:00.132Z,19
2022-11-22T08:00:00.223Z,20
2022-11-22T08:04:00.123Z,20
2022-11-22T08:08:00.138Z,19
2022-11-22T08:12:00.107Z,21
2022-11-22T08:16:05.080Z,21
2022-11-22T08:20:00.186Z,20
2022-11-22T08:24:00.156Z,20
2022-11-22T08:28:00.142Z,22
2022-11-22T08:32:00.119Z,20
2022-11-22T08:36:00.158Z,21
2022-11-22T08:40:00.205Z,21
2022-11-22T08:44:00.203Z,22
2022-11-22T08:48:00.135Z,22
2022-11-22T08:52:00.128Z,26
2022-11-22T08:56:00.142Z,32
2022-11-22T09:00:00.218Z,31
2022-11-22T09:04:00.136Z,23
2022-11-22T09:08:24.526Z,27
2022-11-22T09:12:00.129Z,27
2022-11-22T09:16:00.146Z,26
2022-11-22T09:20:00.145Z,24
2022-11-22T09:24:00.135Z,24
2022-11-22T09:28:00.114Z,25
2022-11-22T09:32:00.133Z,23
2022-11-22T09:36:00.149Z,23
2022-11-22T09:40:00.155Z,23
2022-11-22T09:44:00.130Z,22
2022-11-22T09:48:02.063Z,21
2022-11-22T09:52:00.131Z,21
2022-11-22T09:56:00.098Z,22
2022-11-22T10:00:00.168Z,21
2022-11-22T10:04:00.123Z,20
2022-11-22T10:08:00.157Z,21
2022-11-22T10:12:00.131Z,20
2022-11-22T10:16:00.139Z,21
2022-11-22T10:20:00.164Z,22
2022-11-22T10:24:00.125Z,21
2022-11-22T10:28:01.001Z,21
2022-11-22T10:32:00.122Z,22
2022-11-22T10:36:00.135Z,20
2022-11-22T10:40:00.151Z,21
2022-11-22T10:44:00.147Z,20
2022-11-22T10:48:00.120Z,21
2022-11-22T10:52:00.132Z,20
2022-11-22T10:56:00.140Z,21
2022-11-22T11:00:00.179Z,20
2022-11-22T11:04:00.108Z,19
2022-11-22T11:08:22.060Z,22
2022-11-22T11:12:00.120Z,21
2022-11-22T11:16:00.147Z,20
2022-11-22T11:20:00.178Z,19
2022-11-22T11:24:00.166Z,20
2022-11-22T11:28:00.109Z,20
2022-11-22T11:32:00.174Z,21
2022-11-22T11:36:00.139Z,21
2022-11-22T11:40:00.146Z,20
2022-11-22T11:44:00.138Z,20
2022-11-22T11:48:00.144Z,21
2022-11-22T11:52:00.155Z,19
2022-11-22T11:56:00.149Z,20
2022-11-22T12:00:00.188Z,20
2022-11-22T12:04:00.111Z,20
2022-11-22T12:08:00.304Z,21
2022-11-22T12:12:00.142Z,21
2022-11-22T12:16:00.128Z,21
2022-11-22T12:20:00.152Z,21
2022-11-22T12:24:19.930Z,21
2022-11-22T12:28:00.149Z,23
2022-11-22T12:32:00.159Z,22
2022-11-22T12:36:00.127Z,21
2022-11-22T12:40:00.203Z,21
2022-11-22T12:44:00.136Z,22
2022-11-22T12:48:00.193Z,21
2022-11-22T12:52:00.128Z,21
2022-11-22T12:56:00.135Z,21
2022-11-22T13:00:00.173Z,20
2022-11-22T13:04:00.162Z,19
2022-11-22T13:08:00.148Z,20
2022-11-22T13:12:00.150Z,21
2022-11-22T13:16:00.130Z,20
2022-11-22T13:20:00.227Z,20
2022-11-22T13:24:00.127Z,21
2022-11-22T13:28:00.147Z,20
2022-11-22T13:32:00.143Z,19
2022-11-22T13:36:00.152Z,19
2022-11-22T13:40:00.171Z,19
2022-11-22T13:44:00.143Z,20
2022-11-22T13:48:00.157Z,21
2022-11-22T13:52:00.130Z,20
2022-11-22T13:56:00.143Z,21
2022-11-22T14:00:00.142Z,22
2022-11-22T14:04:00.125Z,20
2022-11-22T14:08:00.281Z,19
2022-11-22T14:12:00.142Z,21
2022-11-22T14:16:00.159Z,22
2022-11-22T14:20:00.172Z,21
2022-11-22T14:24:00.119Z,22
2022-11-22T14:28:00.153Z,20
2022-11-22T14:32:00.133Z,21
2022-11-22T14:36:00.131Z,22
2022-11-22T14:40:00.211Z,22
2022-11-22T14:44:00.108Z,21
2022-11-22T14:48:00.145Z,23
2022-11-22T14:52:00.132Z,21
2022-11-22T14:56:00.156Z,21
2022-11-22T15:00:00.172Z,22
2022-11-22T15:09:18.605Z,21
2022-11-22T15:09:22.729Z,21
2022-11-22T15:12:00.162Z,22
2022-11-22T16:00:00.333Z,22
2022-11-22T16:04:00.143Z,22
2022-11-22T16:08:00.245Z,21
2022-11-22T16:12:00.140Z,22
2022-11-22T16:16:00.160Z,24
2022-11-22T16:20:00.143Z,23
2022-11-22T16:24:00.150Z,24
2022-11-22T16:28:00.132Z,24
2022-11-22T16:32:00.131Z,25
2022-11-22T16:36:00.150Z,24
2022-11-22T16:40:00.178Z,23
2022-11-22T16:44:00.151Z,25
2022-11-22T16:48:29.748Z,24
2022-11-22T16:52:00.125Z,24
2022-11-22T16:56:00.153Z,24
2022-11-22T17:00:00.171Z,30
2022-11-22T17:04:00.127Z,26
2022-11-22T17:08:00.243Z,24
2022-11-22T17:12:00.139Z,24
2022-11-22T17:16:00.154Z,24
2022-11-22T17:20:00.156Z,25
2022-11-22T17:24:00.143Z,25
2022-11-22T17:28:00.147Z,24
2022-11-22T17:32:00.127Z,25
2022-11-22T17:36:00.148Z,27
2022-11-22T17:40:00.169Z,26
2022-11-22T17:44:00.109Z,25
2022-11-22T17:48:00.142Z,25
2022-11-22T17:52:00.127Z,25
2022-11-22T17:56:10.458Z,24
2022-11-22T18:00:00.158Z,23
2022-11-22T18:04:00.142Z,26
2022-11-22T18:08:00.299Z,26
2022-11-22T18:12:00.140Z,23
2022-11-22T18:16:03.597Z,23
2022-11-22T18:20:00.179Z,25
2022-11-22T18:24:00.192Z,24
2022-11-22T18:28:00.141Z,25
2022-11-22T18:32:00.480Z,24
2022-11-22T18:36:00.124Z,26
2022-11-22T18:40:00.143Z,25
2022-11-22T18:44:00.126Z,25
2022-11-22T18:48:00.154Z,25
2022-11-22T18:52:00.140Z,25
2022-11-22T18:56:00.130Z,23
2022-11-22T19:00:00.186Z,25
2022-11-22T19:04:00.131Z,25
2022-11-22T19:08:00.143Z,24
2022-11-22T19:12:00.161Z,25
2022-11-22T19:16:00.139Z,25
2022-11-22T19:20:00.142Z,24
2022-11-22T19:24:00.138Z,24
2022-11-22T19:28:00.151Z,26
2022-11-22T19:32:00.155Z,25
2022-11-22T19:36:00.141Z,26
2022-11-22T19:40:00.198Z,25
2022-11-22T19:44:00.164Z,25
2022-11-22T19:48:00.161Z,24
2022-11-22T19:52:00.127Z,24
2022-11-22T19:56:00.151Z,24
2022-11-22T20:00:00.433Z,24
2022-11-22T20:04:00.141Z,26
2022-11-22T20:08:00.143Z,23
2022-11-22T20:12:00.156Z,25
2022-11-22T20:16:00.139Z,25
2022-11-22T20:20:00.152Z,26
2022-11-22T20:24:00.117Z,26
2022-11-22T20:28:00.144Z,25
2022-11-22T20:32:00.145Z,25
2022-11-22T20:36:00.167Z,24
2022-11-22T20:40:00.338Z,25
2022-11-22T20:44:00.155Z,25
2022-11-22T20:48:00.123Z,25
2022-11-22T20:52:00.143Z,25
2022-11-22T20:56:00.133Z,26
2022-11-22T21:00:00.182Z,24
2022-11-22T21:04:00.157Z,25
2022-11-22T21:08:04.034Z,25
2022-11-22T21:12:00.130Z,24
2022-11-22T21:16:00.140Z,26
2022-11-22T21:20:00.151Z,26
2022-11-22T21:24:00.136Z,26
2022-11-22T21:28:00.140Z,27
2022-11-22T21:32:00.158Z,25
2022-11-22T21:36:00.130Z,25
2022-11-22T21:40:00.158Z,26
2022-11-22T21:44:00.154Z,27
2022-11-22T21:48:00.143Z,25
2022-11-22T21:52:00.124Z,25
2022-11-22T21:56:00.163Z,26
2022-11-22T22:00:00.179Z,25
2022-11-22T22:04:00.128Z,26
2022-11-22T22:08:00.230Z,26
2022-11-22T22:12:00.157Z,26
2022-11-22T22:16:00.127Z,26
2022-11-22T22:20:00.178Z,26
2022-11-22T22:24:00.123Z,28
2022-11-22T22:28:00.170Z,26
2022-11-22T22:32:00.148Z,27
2022-11-22T22:36:00.124Z,25
2022-11-22T22:40:00.153Z,25
2022-11-22T22:44:00.127Z,25
2022-11-22T22:48:00.151Z,26
2022-11-22T22:52:00.139Z,26
2022-11-22T22:56:00.125Z,25
2022-11-22T23:00:00.199Z,25
2022-11-22T23:04:00.136Z,27
2022-11-22T23:08:00.138Z,25
2022-11-22T23:12:00.156Z,25
2022-11-22T23:16:00.150Z,26
2022-11-22T23:20:00.185Z,26
2022-11-22T23:24:00.126Z,24
2022-11-22T23:28:00.163Z,26
2022-11-22T23:32:00.154Z,25
2022-11-22T23:36:00.137Z,25
2022-11-22T23:40:00.165Z,26
2022-11-22T23:44:00.162Z,24
2022-11-22T23:48:00.114Z,25
2022-11-22T23:52:00.153Z,28
2022-11-22T23:56:00.141Z,26
